Lint, Belgium
Current Conditions -  °F | °C
As of 9:20 PM on Wednesday 28 Jan 2015 (Local Time) from EBAW Reporting Station
Clear Clear  
Wind Chill: 32°   Ceiling: Unl
Heat Index: 39°   Visibility: 6mi
Dew Point: 30°   Wind: 13mph
Humidity: 70%   Direction: 260°W
Pressure: 29.53"   Gusts: NA
Location:  51.13°N, 4.5°E
Report Text: EBAW 282020Z 26011KT CAVOK 04/M01 Q1000 NOSIG
Loading
Personal Weather Stations






























Interactive Weather Map New forecast layout! Learn more

10-Day Weather Forecast

Advertisements
Track Severe Weather on mobile